Terminal Aerodrome Forecast
Issued by NWS

Home | Current Version | Previous Version | Text Only | Print | Product List | Glossary On
Versions: 1 2 3 4 5 6 7 8 9 10 11 12 13 14 15 16 17 18 19 20
000
FTUS43 KMQT 281313 AAA
TAFSAW
TAF AMD
KSAW 281313Z 2813/2912 03005KT 2SM BR VV001
     FM281400 10007KT 5SM BR BKN005
     FM281500 10003KT P6SM FEW035
     FM281800 15006KT P6SM SCT200
     FM282000 16010KT P6SM SCT150=

USA.gov is the U.S. government's official web portal to all federal, state and local government web resources and services.